sensor_id;sensor_type;location;lat;lon;timestamp;pressure;altitude;pressure_sealevel;temperature;humidity
76627;BME280;65519;53.230;10.390;2023-12-29T00:01:56;100074.78;;;10.79;100.00
76627;BME280;65519;53.230;10.390;2023-12-29T00:04:21;100070.94;;;10.80;100.00
76627;BME280;65519;53.230;10.390;2023-12-29T00:06:47;100063.38;;;10.72;100.00
76627;BME280;65519;53.230;10.390;2023-12-29T00:09:14;100076.44;;;10.75;100.00
76627;BME280;65519;53.230;10.390;2023-12-29T00:11:39;100059.00;;;10.71;100.00
76627;BME280;65519;53.230;10.390;2023-12-29T00:14:05;100068.81;;;10.72;100.00
76627;BME280;65519;53.230;10.390;2023-12-29T00:16:30;100061.72;;;10.71;100.00
76627;BME280;65519;53.230;10.390;2023-12-29T00:18:56;100064.97;;;10.78;100.00
76627;BME280;65519;53.230;10.390;2023-12-29T00:21:21;100055.97;;;10.78;100.00
76627;BME280;65519;53.230;10.390;2023-12-29T00:23:47;100067.69;;;10.78;100.00
76627;BME280;65519;53.230;10.390;2023-12-29T00:26:16;100064.41;;;10.81;100.00
76627;BME280;65519;53.230;10.390;2023-12-29T00:28:43;100061.69;;;10.81;100.00
76627;BME280;65519;53.230;10.390;2023-12-29T00:31:08;100055.16;;;10.77;100.00
76627;BME280;65519;53.230;10.390;2023-12-29T00:33:34;100037.69;;;10.78;100.00
76627;BME280;65519;53.230;10.390;2023-12-29T00:36:00;100047.25;;;10.76;100.00
76627;BME280;65519;53.230;10.390;2023-12-29T00:38:29;100038.72;;;10.82;100.00
76627;BME280;65519;53.230;10.390;2023-12-29T00:40:54;100043.44;;;10.77;100.00
76627;BME280;65519;53.230;10.390;2023-12-29T00:43:20;100054.34;;;10.77;100.00
76627;BME280;65519;53.230;10.390;2023-12-29T00:45:46;100032.28;;;10.73;100.00
76627;BME280;65519;53.230;10.390;2023-12-29T00:48:11;100027.00;;;10.82;100.00
76627;BME280;65519;53.230;10.390;2023-12-29T00:50:37;100036.06;;;10.77;100.00
76627;BME280;65519;53.230;10.390;2023-12-29T00:53:03;100026.59;;;10.70;100.00
76627;BME280;65519;53.230;10.390;2023-12-29T00:55:29;100016.56;;;10.65;100.00
76627;BME280;65519;53.230;10.390;2023-12-29T00:57:54;100024.97;;;10.69;100.00
76627;BME280;65519;53.230;10.390;2023-12-29T01:00:20;100016.00;;;10.63;100.00
76627;BME280;65519;53.230;10.390;2023-12-29T01:02:45;100017.25;;;10.47;100.00
76627;BME280;65519;53.230;10.390;2023-12-29T01:05:15;100007.47;;;10.41;100.00
76627;BME280;65519;53.230;10.390;2023-12-29T01:07:41;100015.16;;;10.34;100.00
76627;BME280;65519;53.230;10.390;2023-12-29T01:10:07;100007.28;;;10.32;100.00
76627;BME280;65519;53.230;10.390;2023-12-29T01:12:33;100011.44;;;10.24;100.00
76627;BME280;65519;53.230;10.390;2023-12-29T01:14:58;100008.69;;;10.24;100.00
76627;BME280;65519;53.230;10.390;2023-12-29T01:17:25;99999.44;;;10.26;100.00
76627;BME280;65519;53.230;10.390;2023-12-29T01:19:52;100005.63;;;10.36;100.00
76627;BME280;65519;53.230;10.390;2023-12-29T01:22:18;100007.56;;;10.31;100.00
76627;BME280;65519;53.230;10.390;2023-12-29T01:24:43;100010.81;;;10.33;100.00
76627;BME280;65519;53.230;10.390;2023-12-29T01:27:09;99980.81;;;10.38;100.00
76627;BME280;65519;53.230;10.390;2023-12-29T01:29:34;100005.53;;;10.46;100.00
76627;BME280;65519;53.230;10.390;2023-12-29T01:31:59;100009.91;;;10.47;100.00
76627;BME280;65519;53.230;10.390;2023-12-29T01:34:25;100013.94;;;10.50;100.00
76627;BME280;65519;53.230;10.390;2023-12-29T01:36:58;99999.03;;;10.42;100.00
76627;BME280;65519;53.230;10.390;2023-12-29T01:39:23;100003.56;;;10.52;100.00
76627;BME280;65519;53.230;10.390;2023-12-29T01:41:50;99983.84;;;10.65;100.00
76627;BME280;65519;53.230;10.390;2023-12-29T01:44:20;99995.28;;;10.67;100.00
76627;BME280;65519;53.230;10.390;2023-12-29T01:46:46;99994.75;;;10.65;100.00
76627;BME280;65519;53.230;10.390;2023-12-29T01:49:15;99985.13;;;10.73;100.00
76627;BME280;65519;53.230;10.390;2023-12-29T01:51:42;99979.94;;;10.71;100.00
76627;BME280;65519;53.230;10.390;2023-12-29T01:54:09;99989.47;;;10.74;100.00
76627;BME280;65519;53.230;10.390;2023-12-29T01:56:35;99996.25;;;10.81;100.00
76627;BME280;65519;53.230;10.390;2023-12-29T01:59:01;99985.41;;;10.71;100.00
76627;BME280;65519;53.230;10.390;2023-12-29T02:01:27;100001.25;;;10.69;100.00
76627;BME280;65519;53.230;10.390;2023-12-29T02:03:53;99973.47;;;10.67;100.00
76627;BME280;65519;53.230;10.390;2023-12-29T02:06:19;99988.19;;;10.66;100.00
76627;BME280;65519;53.230;10.390;2023-12-29T02:08:46;99974.03;;;10.64;100.00
76627;BME280;65519;53.230;10.390;2023-12-29T02:11:12;99980.00;;;10.66;100.00
76627;BME280;65519;53.230;10.390;2023-12-29T02:13:39;99972.25;;;10.49;100.00
76627;BME280;65519;53.230;10.390;2023-12-29T02:16:13;99980.13;;;10.56;100.00
76627;BME280;65519;53.230;10.390;2023-12-29T02:18:41;99984.47;;;10.57;100.00
76627;BME280;65519;53.230;10.390;2023-12-29T02:21:09;99977.13;;;10.52;100.00
76627;BME280;65519;53.230;10.390;2023-12-29T02:23:35;99976.56;;;10.55;100.00
76627;BME280;65519;53.230;10.390;2023-12-29T02:26:04;99962.50;;;10.43;100.00
76627;BME280;65519;53.230;10.390;2023-12-29T02:28:34;99986.50;;;10.41;100.00
76627;BME280;65519;53.230;10.390;2023-12-29T02:33:32;99972.84;;;10.46;100.00
76627;BME280;65519;53.230;10.390;2023-12-29T02:36:01;99974.88;;;10.31;100.00
76627;BME280;65519;53.230;10.390;2023-12-29T02:38:28;99965.84;;;10.35;100.00
76627;BME280;65519;53.230;10.390;2023-12-29T02:40:58;99958.50;;;10.36;100.00
76627;BME280;65519;53.230;10.390;2023-12-29T02:43:23;99966.06;;;10.39;100.00
76627;BME280;65519;53.230;10.390;2023-12-29T02:45:49;99957.69;;;10.35;100.00
76627;BME280;65519;53.230;10.390;2023-12-29T02:48:14;99962.84;;;10.37;100.00
76627;BME280;65519;53.230;10.390;2023-12-29T02:50:39;99962.13;;;10.21;100.00
76627;BME280;65519;53.230;10.390;2023-12-29T02:53:05;99955.34;;;10.18;100.00
76627;BME280;65519;53.230;10.390;2023-12-29T02:55:31;99956.78;;;10.06;100.00
76627;BME280;65519;53.230;10.390;2023-12-29T02:57:56;99948.09;;;10.04;100.00
76627;BME280;65519;53.230;10.390;2023-12-29T03:00:22;99950.53;;;10.05;100.00
76627;BME280;65519;53.230;10.390;2023-12-29T03:02:48;99946.34;;;9.79;100.00
76627;BME280;65519;53.230;10.390;2023-12-29T03:05:14;99940.88;;;9.84;100.00
76627;BME280;65519;53.230;10.390;2023-12-29T03:07:40;99940.63;;;9.80;100.00
76627;BME280;65519;53.230;10.390;2023-12-29T03:10:07;99936.34;;;9.69;100.00
76627;BME280;65519;53.230;10.390;2023-12-29T03:12:32;99928.44;;;9.68;100.00
76627;BME280;65519;53.230;10.390;2023-12-29T03:14:58;99917.81;;;9.71;100.00
76627;BME280;65519;53.230;10.390;2023-12-29T03:17:24;99913.25;;;9.62;100.00
76627;BME280;65519;53.230;10.390;2023-12-29T03:19:49;99927.69;;;9.57;100.00
76627;BME280;65519;53.230;10.390;2023-12-29T03:22:15;99916.75;;;9.67;100.00
76627;BME280;65519;53.230;10.390;2023-12-29T03:24:41;99887.97;;;9.61;100.00
76627;BME280;65519;53.230;10.390;2023-12-29T03:27:07;99882.25;;;9.58;100.00
76627;BME280;65519;53.230;10.390;2023-12-29T03:29:34;99919.53;;;9.62;100.00
76627;BME280;65519;53.230;10.390;2023-12-29T03:32:00;99899.88;;;9.70;100.00
76627;BME280;65519;53.230;10.390;2023-12-29T03:34:25;99897.78;;;9.52;100.00
76627;BME280;65519;53.230;10.390;2023-12-29T03:36:51;99886.63;;;9.53;100.00
76627;BME280;65519;53.230;10.390;2023-12-29T03:39:17;99878.47;;;9.53;100.00
76627;BME280;65519;53.230;10.390;2023-12-29T03:41:43;99892.66;;;9.50;100.00
76627;BME280;65519;53.230;10.390;2023-12-29T03:44:09;99900.81;;;9.50;100.00
76627;BME280;65519;53.230;10.390;2023-12-29T03:46:34;99877.97;;;9.51;100.00
76627;BME280;65519;53.230;10.390;2023-12-29T03:49:00;99895.66;;;9.44;100.00
76627;BME280;65519;53.230;10.390;2023-12-29T03:51:25;99874.22;;;9.37;100.00
76627;BME280;65519;53.230;10.390;2023-12-29T03:53:51;99880.72;;;9.41;100.00
76627;BME280;65519;53.230;10.390;2023-12-29T03:56:17;99890.50;;;9.42;100.00
76627;BME280;65519;53.230;10.390;2023-12-29T03:58:44;99881.19;;;9.53;100.00
76627;BME280;65519;53.230;10.390;2023-12-29T04:01:14;99872.84;;;9.40;100.00
76627;BME280;65519;53.230;10.390;2023-12-29T04:03:40;99879.72;;;9.27;100.00
76627;BME280;65519;53.230;10.390;2023-12-29T04:06:06;99860.63;;;9.37;100.00
76627;BME280;65519;53.230;10.390;2023-12-29T04:08:33;99864.97;;;9.38;100.00
76627;BME280;65519;53.230;10.390;2023-12-29T04:10:59;99883.19;;;9.38;100.00
76627;BME280;65519;53.230;10.390;2023-12-29T04:13:24;99860.06;;;9.40;100.00
76627;BME280;65519;53.230;10.390;2023-12-29T04:15:50;99859.28;;;9.35;100.00
76627;BME280;65519;53.230;10.390;2023-12-29T04:18:17;99849.47;;;9.39;100.00
76627;BME280;65519;53.230;10.390;2023-12-29T04:20:42;99849.00;;;9.27;100.00
76627;BME280;65519;53.230;10.390;2023-12-29T04:23:08;99845.47;;;9.21;100.00
76627;BME280;65519;53.230;10.390;2023-12-29T04:25:34;99832.13;;;9.25;100.00
76627;BME280;65519;53.230;10.390;2023-12-29T04:28:00;99811.38;;;9.39;100.00
76627;BME280;65519;53.230;10.390;2023-12-29T04:30:26;99823.66;;;9.31;100.00
76627;BME280;65519;53.230;10.390;2023-12-29T04:32:54;99830.38;;;9.44;100.00
76627;BME280;65519;53.230;10.390;2023-12-29T04:35:19;99821.13;;;9.45;100.00
76627;BME280;65519;53.230;10.390;2023-12-29T04:37:45;99821.31;;;9.59;100.00
76627;BME280;65519;53.230;10.390;2023-12-29T04:40:12;99825.94;;;9.58;100.00
76627;BME280;65519;53.230;10.390;2023-12-29T04:42:38;99825.03;;;9.68;100.00
76627;BME280;65519;53.230;10.390;2023-12-29T04:45:05;99830.47;;;9.68;100.00
76627;BME280;65519;53.230;10.390;2023-12-29T04:47:30;99937.69;;;9.67;100.00
76627;BME280;65519;53.230;10.390;2023-12-29T04:49:56;99947.00;;;9.61;100.00
76627;BME280;65519;53.230;10.390;2023-12-29T04:52:22;99954.41;;;8.55;100.00
76627;BME280;65519;53.230;10.390;2023-12-29T04:54:48;99945.19;;;8.46;100.00
76627;BME280;65519;53.230;10.390;2023-12-29T04:57:13;99943.00;;;8.48;100.00
76627;BME280;65519;53.230;10.390;2023-12-29T04:59:39;99944.63;;;8.09;100.00
76627;BME280;65519;53.230;10.390;2023-12-29T05:02:04;99958.72;;;8.00;100.00
76627;BME280;65519;53.230;10.390;2023-12-29T05:04:30;99963.06;;;8.01;100.00
76627;BME280;65519;53.230;10.390;2023-12-29T05:06:55;99967.13;;;7.94;100.00
76627;BME280;65519;53.230;10.390;2023-12-29T05:09:20;99978.84;;;8.10;100.00
76627;BME280;65519;53.230;10.390;2023-12-29T05:11:46;99979.06;;;7.83;100.00
76627;BME280;65519;53.230;10.390;2023-12-29T05:14:11;99971.66;;;7.58;100.00
76627;BME280;65519;53.230;10.390;2023-12-29T05:16:37;99960.84;;;7.63;100.00
76627;BME280;65519;53.230;10.390;2023-12-29T05:19:02;99972.16;;;7.40;100.00
76627;BME280;65519;53.230;10.390;2023-12-29T05:21:28;99949.34;;;7.36;100.00
76627;BME280;65519;53.230;10.390;2023-12-29T05:23:53;99953.16;;;7.35;100.00
76627;BME280;65519;53.230;10.390;2023-12-29T05:26:19;99958.59;;;7.40;100.00
76627;BME280;65519;53.230;10.390;2023-12-29T05:28:44;99974.63;;;7.51;100.00
76627;BME280;65519;53.230;10.390;2023-12-29T05:31:10;99993.09;;;7.54;100.00
76627;BME280;65519;53.230;10.390;2023-12-29T05:33:35;99973.22;;;7.39;100.00
76627;BME280;65519;53.230;10.390;2023-12-29T05:36:08;99977.88;;;7.43;100.00
76627;BME280;65519;53.230;10.390;2023-12-29T05:38:34;99951.84;;;7.52;100.00
76627;BME280;65519;53.230;10.390;2023-12-29T05:41:01;99954.81;;;7.41;100.00
76627;BME280;65519;53.230;10.390;2023-12-29T05:43:28;99955.84;;;7.24;100.00
76627;BME280;65519;53.230;10.390;2023-12-29T05:45:53;99945.03;;;7.35;100.00
76627;BME280;65519;53.230;10.390;2023-12-29T05:48:19;99948.63;;;7.60;100.00
76627;BME280;65519;53.230;10.390;2023-12-29T05:50:44;99959.22;;;7.57;100.00
76627;BME280;65519;53.230;10.390;2023-12-29T05:53:10;99948.63;;;7.55;100.00
76627;BME280;65519;53.230;10.390;2023-12-29T05:55:35;99955.03;;;7.24;100.00
76627;BME280;65519;53.230;10.390;2023-12-29T05:58:01;99934.88;;;7.05;100.00
76627;BME280;65519;53.230;10.390;2023-12-29T06:00:27;99947.16;;;7.22;100.00
76627;BME280;65519;53.230;10.390;2023-12-29T06:02:52;99950.16;;;7.31;100.00
76627;BME280;65519;53.230;10.390;2023-12-29T06:05:18;99955.91;;;7.45;100.00
76627;BME280;65519;53.230;10.390;2023-12-29T06:07:43;99957.56;;;7.56;100.00
76627;BME280;65519;53.230;10.390;2023-12-29T06:10:09;99953.81;;;7.67;100.00
76627;BME280;65519;53.230;10.390;2023-12-29T06:12:35;99939.09;;;7.48;100.00
76627;BME280;65519;53.230;10.390;2023-12-29T06:15:01;99929.81;;;7.23;100.00
76627;BME280;65519;53.230;10.390;2023-12-29T06:17:27;99935.53;;;7.37;100.00
76627;BME280;65519;53.230;10.390;2023-12-29T06:19:52;99934.72;;;7.37;100.00
76627;BME280;65519;53.230;10.390;2023-12-29T06:22:18;99938.00;;;7.44;100.00
76627;BME280;65519;53.230;10.390;2023-12-29T06:24:44;99934.81;;;7.67;100.00
76627;BME280;65519;53.230;10.390;2023-12-29T06:27:11;99936.97;;;7.65;100.00
76627;BME280;65519;53.230;10.390;2023-12-29T06:29:37;99945.34;;;7.58;100.00
76627;BME280;65519;53.230;10.390;2023-12-29T06:32:04;99953.00;;;7.66;100.00
76627;BME280;65519;53.230;10.390;2023-12-29T06:34:29;99936.13;;;7.54;100.00
76627;BME280;65519;53.230;10.390;2023-12-29T06:36:55;99944.00;;;7.61;100.00
76627;BME280;65519;53.230;10.390;2023-12-29T06:39:20;99938.84;;;7.59;100.00
76627;BME280;65519;53.230;10.390;2023-12-29T06:41:46;99930.44;;;7.61;100.00
76627;BME280;65519;53.230;10.390;2023-12-29T06:44:11;99920.16;;;7.73;100.00
76627;BME280;65519;53.230;10.390;2023-12-29T06:46:37;99919.66;;;7.86;100.00
76627;BME280;65519;53.230;10.390;2023-12-29T06:49:03;99926.44;;;7.94;100.00
76627;BME280;65519;53.230;10.390;2023-12-29T06:51:29;99931.63;;;8.36;100.00
76627;BME280;65519;53.230;10.390;2023-12-29T06:53:54;99925.63;;;8.64;100.00
76627;BME280;65519;53.230;10.390;2023-12-29T06:56:20;99922.53;;;8.96;100.00
76627;BME280;65519;53.230;10.390;2023-12-29T06:58:46;99915.75;;;8.89;100.00
76627;BME280;65519;53.230;10.390;2023-12-29T07:01:12;99929.63;;;8.97;100.00
76627;BME280;65519;53.230;10.390;2023-12-29T07:03:38;99928.72;;;9.12;100.00
76627;BME280;65519;53.230;10.390;2023-12-29T07:06:03;99920.34;;;8.98;100.00
76627;BME280;65519;53.230;10.390;2023-12-29T07:08:29;99920.88;;;9.05;100.00
76627;BME280;65519;53.230;10.390;2023-12-29T07:10:54;99919.53;;;9.03;100.00
76627;BME280;65519;53.230;10.390;2023-12-29T07:13:20;99940.72;;;9.06;100.00
76627;BME280;65519;53.230;10.390;2023-12-29T07:15:48;99920.88;;;9.05;100.00
76627;BME280;65519;53.230;10.390;2023-12-29T07:18:14;99916.22;;;9.16;100.00
76627;BME280;65519;53.230;10.390;2023-12-29T07:20:41;99926.84;;;9.07;100.00
76627;BME280;65519;53.230;10.390;2023-12-29T07:23:07;99933.56;;;9.20;100.00
76627;BME280;65519;53.230;10.390;2023-12-29T07:25:32;99921.66;;;9.16;100.00
76627;BME280;65519;53.230;10.390;2023-12-29T07:27:58;99944.53;;;9.05;100.00
76627;BME280;65519;53.230;10.390;2023-12-29T07:30:23;99960.25;;;9.18;100.00
76627;BME280;65519;53.230;10.390;2023-12-29T07:32:49;99934.16;;;9.12;100.00
76627;BME280;65519;53.230;10.390;2023-12-29T07:35:14;99936.88;;;9.12;100.00
76627;BME280;65519;53.230;10.390;2023-12-29T07:37:43;99942.59;;;9.10;100.00
76627;BME280;65519;53.230;10.390;2023-12-29T07:40:13;99942.59;;;9.15;100.00
76627;BME280;65519;53.230;10.390;2023-12-29T07:42:42;99944.50;;;9.10;100.00
76627;BME280;65519;53.230;10.390;2023-12-29T07:45:10;99934.72;;;9.09;100.00
76627;BME280;65519;53.230;10.390;2023-12-29T07:47:36;99939.31;;;9.19;100.00
76627;BME280;65519;53.230;10.390;2023-12-29T07:50:01;99938.50;;;9.18;100.00
76627;BME280;65519;53.230;10.390;2023-12-29T07:52:27;99944.72;;;9.24;100.00
76627;BME280;65519;53.230;10.390;2023-12-29T07:54:52;99952.09;;;9.13;100.00
76627;BME280;65519;53.230;10.390;2023-12-29T07:57:18;99953.75;;;9.09;100.00
76627;BME280;65519;53.230;10.390;2023-12-29T07:59:43;99952.91;;;9.13;100.00
76627;BME280;65519;53.230;10.390;2023-12-29T08:02:09;99956.19;;;9.10;100.00
76627;BME280;65519;53.230;10.390;2023-12-29T08:04:35;99940.69;;;9.11;100.00
76627;BME280;65519;53.230;10.390;2023-12-29T08:07:00;99946.13;;;9.16;100.00
76627;BME280;65519;53.230;10.390;2023-12-29T08:09:26;99955.91;;;9.17;100.00
76627;BME280;65519;53.230;10.390;2023-12-29T08:11:51;99955.63;;;9.19;100.00
76627;BME280;65519;53.230;10.390;2023-12-29T08:14:17;99951.03;;;9.09;100.00
76627;BME280;65519;53.230;10.390;2023-12-29T08:16:42;99949.94;;;9.15;100.00
76627;BME280;65519;53.230;10.390;2023-12-29T08:19:08;99940.16;;;9.09;100.00
76627;BME280;65519;53.230;10.390;2023-12-29T08:21:35;99935.78;;;9.13;100.00
76627;BME280;65519;53.230;10.390;2023-12-29T08:24:00;99924.94;;;9.08;100.00
76627;BME280;65519;53.230;10.390;2023-12-29T08:26:26;99927.09;;;9.11;100.00
76627;BME280;65519;53.230;10.390;2023-12-29T08:28:51;99937.44;;;9.09;100.00
76627;BME280;65519;53.230;10.390;2023-12-29T08:31:18;99949.38;;;9.18;100.00
76627;BME280;65519;53.230;10.390;2023-12-29T08:33:44;99945.03;;;9.17;100.00
76627;BME280;65519;53.230;10.390;2023-12-29T08:36:11;99936.56;;;9.24;100.00
76627;BME280;65519;53.230;10.390;2023-12-29T08:38:37;99946.34;;;9.25;100.00
76627;BME280;65519;53.230;10.390;2023-12-29T08:41:02;99934.16;;;9.17;100.00
76627;BME280;65519;53.230;10.390;2023-12-29T08:43:28;99937.97;;;9.16;100.00
76627;BME280;65519;53.230;10.390;2023-12-29T08:45:53;99947.97;;;9.26;100.00
76627;BME280;65519;53.230;10.390;2023-12-29T08:48:19;99950.16;;;9.29;100.00
76627;BME280;65519;53.230;10.390;2023-12-29T08:50:44;99938.97;;;9.30;100.00
76627;BME280;65519;53.230;10.390;2023-12-29T08:53:10;99941.69;;;9.30;100.00
76627;BME280;65519;53.230;10.390;2023-12-29T08:55:35;99941.63;;;9.45;100.00
76627;BME280;65519;53.230;10.390;2023-12-29T08:58:01;99948.19;;;9.39;100.00
76627;BME280;65519;53.230;10.390;2023-12-29T09:00:26;99931.88;;;9.39;100.00
76627;BME280;65519;53.230;10.390;2023-12-29T09:02:53;99934.34;;;9.31;100.00
76627;BME280;65519;53.230;10.390;2023-12-29T09:05:18;99938.31;;;9.53;100.00
76627;BME280;65519;53.230;10.390;2023-12-29T09:07:44;99936.88;;;9.66;100.00
76627;BME280;65519;53.230;10.390;2023-12-29T09:10:09;99930.69;;;9.61;100.00
76627;BME280;65519;53.230;10.390;2023-12-29T09:12:38;99942.47;;;9.85;100.00
76627;BME280;65519;53.230;10.390;2023-12-29T09:15:04;99951.25;;;9.77;100.00
76627;BME280;65519;53.230;10.390;2023-12-29T09:17:30;99930.63;;;9.66;100.00
76627;BME280;65519;53.230;10.390;2023-12-29T09:19:55;99947.50;;;9.63;100.00
76627;BME280;65519;53.230;10.390;2023-12-29T09:22:21;99954.63;;;9.53;100.00
76627;BME280;65519;53.230;10.390;2023-12-29T09:24:46;99944.84;;;9.58;100.00
76627;BME280;65519;53.230;10.390;2023-12-29T09:27:12;99949.78;;;9.50;100.00
76627;BME280;65519;53.230;10.390;2023-12-29T09:29:38;99948.09;;;9.55;100.00
76627;BME280;65519;53.230;10.390;2023-12-29T09:32:04;99953.81;;;9.53;100.00
76627;BME280;65519;53.230;10.390;2023-12-29T09:34:29;99958.72;;;9.56;100.00
76627;BME280;65519;53.230;10.390;2023-12-29T09:36:55;99952.47;;;9.56;100.00
76627;BME280;65519;53.230;10.390;2023-12-29T09:39:20;99951.91;;;9.59;100.00
76627;BME280;65519;53.230;10.390;2023-12-29T09:41:46;99961.19;;;9.52;100.00
76627;BME280;65519;53.230;10.390;2023-12-29T09:44:21;99953.81;;;9.53;100.00
76627;BME280;65519;53.230;10.390;2023-12-29T09:46:53;99963.94;;;9.42;100.00
76627;BME280;65519;53.230;10.390;2023-12-29T09:49:19;100007.50;;;9.32;100.00
76627;BME280;65519;53.230;10.390;2023-12-29T09:51:45;100002.66;;;9.29;100.00
76627;BME280;65519;53.230;10.390;2023-12-29T09:54:12;100006.25;;;9.04;100.00
76627;BME280;65519;53.230;10.390;2023-12-29T09:56:38;100024.97;;;9.11;100.00
76627;BME280;65519;53.230;10.390;2023-12-29T09:59:05;99996.25;;;8.64;100.00
76627;BME280;65519;53.230;10.390;2023-12-29T10:01:32;99997.88;;;8.35;100.00
76627;BME280;65519;53.230;10.390;2023-12-29T10:03:58;99987.25;;;8.08;100.00
76627;BME280;65519;53.230;10.390;2023-12-29T10:06:25;99991.84;;;7.97;100.00
76627;BME280;65519;53.230;10.390;2023-12-29T10:08:51;99983.72;;;7.97;100.00
76627;BME280;65519;53.230;10.390;2023-12-29T10:11:19;99999.97;;;7.87;100.00
76627;BME280;65519;53.230;10.390;2023-12-29T10:13:50;100003.25;;;7.89;100.00
76627;BME280;65519;53.230;10.390;2023-12-29T10:24:36;100015.78;;;8.66;100.00
76627;BME280;65519;53.230;10.390;2023-12-29T10:27:02;100015.81;;;8.71;100.00
76627;BME280;65519;53.230;10.390;2023-12-29T10:29:28;100005.44;;;8.94;100.00
76627;BME280;65519;53.230;10.390;2023-12-29T10:31:54;99990.25;;;8.83;100.00
76627;BME280;65519;53.230;10.390;2023-12-29T10:34:21;99981.56;;;8.65;100.00
76627;BME280;65519;53.230;10.390;2023-12-29T10:36:53;99979.94;;;8.44;100.00
76627;BME280;65519;53.230;10.390;2023-12-29T10:39:19;99982.66;;;8.34;100.00
76627;BME280;65519;53.230;10.390;2023-12-29T10:41:44;99996.22;;;8.29;100.00
76627;BME280;65519;53.230;10.390;2023-12-29T10:44:10;99997.63;;;8.31;100.00
76627;BME280;65519;53.230;10.390;2023-12-29T10:46:35;99980.19;;;8.27;100.00
76627;BME280;65519;53.230;10.390;2023-12-29T10:49:12;99979.38;;;8.06;100.00
76627;BME280;65519;53.230;10.390;2023-12-29T10:51:38;99976.66;;;8.12;100.00
76627;BME280;65519;53.230;10.390;2023-12-29T10:54:04;99968.25;;;8.13;100.00
76627;BME280;65519;53.230;10.390;2023-12-29T10:56:33;99976.41;;;8.18;100.00
76627;BME280;65519;53.230;10.390;2023-12-29T10:59:00;99978.28;;;8.02;100.00
76627;BME280;65519;53.230;10.390;2023-12-29T11:01:26;99981.81;;;7.98;100.00
76627;BME280;65519;53.230;10.390;2023-12-29T11:04:05;99974.50;;;8.19;100.00
76627;BME280;65519;53.230;10.390;2023-12-29T11:06:50;99977.19;;;8.14;100.00
76627;BME280;65519;53.230;10.390;2023-12-29T11:09:30;99974.78;;;8.17;100.00
76627;BME280;65519;53.230;10.390;2023-12-29T11:12:03;99969.06;;;8.19;100.00
76627;BME280;65519;53.230;10.390;2023-12-29T11:14:29;99973.66;;;8.23;100.00
76627;BME280;65519;53.230;10.390;2023-12-29T11:16:55;99968.81;;;8.20;100.00
76627;BME280;65519;53.230;10.390;2023-12-29T11:19:21;99966.38;;;8.39;100.00
76627;BME280;65519;53.230;10.390;2023-12-29T11:21:51;99975.09;;;8.41;100.00
76627;BME280;65519;53.230;10.390;2023-12-29T11:24:20;99982.69;;;8.39;100.00
76627;BME280;65519;53.230;10.390;2023-12-29T11:26:46;99985.94;;;8.41;100.00
76627;BME280;65519;53.230;10.390;2023-12-29T11:29:12;99987.81;;;8.46;100.00
76627;BME280;65519;53.230;10.390;2023-12-29T11:31:38;99987.81;;;8.56;100.00
76627;BME280;65519;53.230;10.390;2023-12-29T11:34:34;99993.53;;;8.49;100.00
76627;BME280;65519;53.230;10.390;2023-12-29T11:40:22;99978.59;;;8.62;100.00
76627;BME280;65519;53.230;10.390;2023-12-29T11:42:53;99984.84;;;8.62;100.00
76627;BME280;65519;53.230;10.390;2023-12-29T11:45:25;99996.25;;;8.64;100.00
76627;BME280;65519;53.230;10.390;2023-12-29T11:47:53;99975.88;;;8.62;100.00
76627;BME280;65519;53.230;10.390;2023-12-29T11:50:32;99975.88;;;8.62;100.00
76627;BME280;65519;53.230;10.390;2023-12-29T11:52:58;99969.63;;;8.61;100.00
76627;BME280;65519;53.230;10.390;2023-12-29T11:55:38;99981.56;;;8.65;100.00
76627;BME280;65519;53.230;10.390;2023-12-29T12:00:48;99966.66;;;8.63;100.00
76627;BME280;65519;53.230;10.390;2023-12-29T12:03:18;99964.19;;;8.46;100.00
76627;BME280;65519;53.230;10.390;2023-12-29T12:05:47;99957.69;;;8.52;100.00
76627;BME280;65519;53.230;10.390;2023-12-29T12:08:35;99956.59;;;8.53;100.00
76627;BME280;65519;53.230;10.390;2023-12-29T12:13:56;99936.22;;;8.30;100.00
76627;BME280;65519;53.230;10.390;2023-12-29T12:16:50;99928.88;;;8.46;100.00
76627;BME280;65519;53.230;10.390;2023-12-29T12:19:17;99928.09;;;8.51;100.00
76627;BME280;65519;53.230;10.390;2023-12-29T12:21:46;99931.63;;;8.36;100.00
76627;BME280;65519;53.230;10.390;2023-12-29T12:24:14;99944.13;;;8.42;100.00
76627;BME280;65519;53.230;10.390;2023-12-29T12:26:40;99939.50;;;8.32;100.00
76627;BME280;65519;53.230;10.390;2023-12-29T12:29:07;99919.38;;;8.23;100.00
76627;BME280;65519;53.230;10.390;2023-12-29T12:31:33;99921.84;;;8.35;100.00
76627;BME280;65519;53.230;10.390;2023-12-29T12:33:59;99934.06;;;8.43;100.00
76627;BME280;65519;53.230;10.390;2023-12-29T12:36:28;99937.84;;;8.47;100.00
76627;BME280;65519;53.230;10.390;2023-12-29T12:38:54;99941.94;;;8.54;100.00
76627;BME280;65519;53.230;10.390;2023-12-29T12:41:21;99952.25;;;8.52;100.00
76627;BME280;65519;53.230;10.390;2023-12-29T12:46:22;99945.16;;;8.26;100.00
76627;BME280;65519;53.230;10.390;2023-12-29T12:48:52;99953.34;;;8.21;100.00
76627;BME280;65519;53.230;10.390;2023-12-29T12:51:19;99943.00;;;8.13;100.00
76627;BME280;65519;53.230;10.390;2023-12-29T12:53:46;99918.84;;;8.16;100.00
76627;BME280;65519;53.230;10.390;2023-12-29T12:56:14;99896.03;;;8.22;100.00
76627;BME280;65519;53.230;10.390;2023-12-29T12:58:40;99881.69;;;8.32;100.00
76627;BME280;65519;53.230;10.390;2023-12-29T13:01:06;99892.53;;;8.42;100.00
76627;BME280;65519;53.230;10.390;2023-12-29T13:03:32;99894.66;;;8.50;100.00
76627;BME280;65519;53.230;10.390;2023-12-29T13:05:58;99894.13;;;8.53;100.00